Detalii statie SOPEMA [00001CFB]

Toti senzorii

Date Temperatura solului [C]Precipitatii [mm]Voltaj baterie [mV]Leaf Wetness [Min]HC Air temperature [C]HC Relative humidity [%]Punctul de roua [C]
medieminmaxsumaultimatimpmedieminmaxmediemediemin
2019-08-15 20:00:00 0 6972 22.4 21.82 22.92 57.13 13.3 13.2
2019-08-15 21:00:00 0 6854 20.99 20.26 21.71 61.04 13 12.8
2019-08-15 22:00:00 0 6844 19.67 19.2 20.11 65.21 12.7 12.7
2019-08-15 23:00:00 0 6854 18.65 18.31 19.09 69.32 12.7 12.7
2019-08-16 00:00:00 0 6864 17.99 17.81 18.33 71.91 12.7 12.6
2019-08-16 01:00:00 0 6864 17.58 17.45 17.86 73.94 12.7 12.6
2019-08-16 02:00:00 0 6844 17.42 17.36 17.49 74.18 12.6 12.5
2019-08-16 03:00:00 0 6854 17.06 16.82 17.38 75.46 12.5 12.4
2019-08-16 04:00:00 0 6844 16.96 16.86 17.03 76.03 12.5 12.4
2019-08-16 05:00:00 0 6844 17.13 17.04 17.22 74.61 12.4 12.4
2019-08-16 06:00:00 0 6816 16.96 16.62 17.22 75.43 12.4 12.3
2019-08-16 07:00:00 0 6816 16.46 16.41 16.59 78.64 12.6 12.5
2019-08-16 08:00:00 0 6806 16.64 16.52 16.78 77.03 12.5 12.3
2019-08-16 09:00:00 0 6914 17.67 16.8 18.31 70.72 12.1 12
2019-08-16 10:00:00 0 7098 20.2 18.74 21.34 58.03 11.4 11.1
2019-08-16 11:00:00 0 7246 22.04 20.89 23.69 51.05 11.2 10.7
2019-08-16 12:00:00 0 7264 24.4 23.5 25.41 43.93 11.1 10.2
2019-08-16 13:00:00 0 7264 25.62 25.31 26.18 39.3 10.4 10.1
2019-08-16 14:00:00 0 7264 26.58 25.73 27.21 38.59 11.1 10.4
2019-08-16 15:00:00 0 7254 26.9 26.11 28.12 38.69 11.4 10.6
2019-08-16 16:00:00 0 7236 28.16 27.41 28.78 36.42 11.5 10.6
2019-08-16 17:00:00 0 7158 27.86 27.04 28.6 36.58 11.3 10.2
2019-08-16 18:00:00 0 7138 27.36 26.65 28.51 37.84 11.4 10.7
2019-08-16 19:00:00 0 7040 26.04 25.05 27.11 39.56 11 10.5
2019-08-16 20:00:00 0 6932 24.05 22.77 24.99 44.55 11 10.4
2019-08-16 21:00:00 0 6864 22.4 22.17 22.72 50.37 11.4 11.2
2019-08-16 22:00:00 0 6864 21.64 20.85 22.14 51.73 11.1 10.9
2019-08-16 23:00:00 0 6854 19.92 18.81 20.72 58.17 11.2 10.8
2019-08-17 00:00:00 0 6864 18.91 18.66 19.16 64.66 11.9 11.7
2019-08-17 01:00:00 0 6844 17.96 17.28 19.05 71.47 12.5 12.2
2019-08-17 02:00:00 0 6844 16.74 15.78 17.97 79.92 13 12.7
2019-08-17 03:00:00 0 6854 16.51 15.78 17.18 87.22 14.2 13.7
2019-08-17 04:00:00 0 6834 18.38 17.33 18.84 72.41 13.1 12.8
2019-08-17 05:00:00 0 6834 18.74 18.63 18.93 69.92 12.9 12.8
2019-08-17 06:00:00 0 6826 17.97 17.46 18.7 75.26 13.3 12.9
2019-08-17 07:00:00 0 6834 17.04 16.71 17.54 80.23 13.4 13.2
2019-08-17 08:00:00 0 6844 17.92 17.07 19.49 76.07 13.4 12.6
2019-08-17 09:00:00 0 6884 20.15 18.76 21.3 60.76 12.1 11.7
2019-08-17 10:00:00 0 7050 22.97 21.57 24.35 47.21 10.8 9.9
2019-08-17 11:00:00 0 7236 24.8 23.87 25.29 38.18 9.3 8.2
2019-08-17 12:00:00 0 7246 25.83 24.68 27.55 35.95 9.2 8.7
2019-08-17 13:00:00 0 7264 26.43 25.52 27.18 34.03 9 8.6
2019-08-17 14:00:00 0 7264 26.97 26.41 27.86 33 9.1 8.8
2019-08-17 15:00:00 0 7236 27.72 27.06 28.56 29.73 8.1 6.5
2019-08-17 16:00:00 0 7236 28.01 26.65 29.95 28.88 7.9 7.1
2019-08-17 17:00:00 0 7236 27.27 26.5 27.84 30.35 8 7.2
2019-08-17 18:00:00 0 7148 27.08 26.71 27.61 30.32 7.9 7.4
2019-08-17 19:00:00 0 7040 26.23 25.24 26.83 32.44 8.1 7.7